sensor_id;sensor_type;location;lat;lon;timestamp;temperature;humidity
19206;DHT22;59358;52.134;5.596;2023-09-19T00:00:30;14.40;99.90
19206;DHT22;59358;52.134;5.596;2023-09-19T00:02:59;14.40;99.90
19206;DHT22;59358;52.134;5.596;2023-09-19T00:05:28;14.40;99.90
19206;DHT22;59358;52.134;5.596;2023-09-19T00:07:56;14.40;99.90
19206;DHT22;59358;52.134;5.596;2023-09-19T00:10:24;14.30;99.90
19206;DHT22;59358;52.134;5.596;2023-09-19T00:12:52;14.30;99.90
19206;DHT22;59358;52.134;5.596;2023-09-19T00:15:21;14.30;99.90
19206;DHT22;59358;52.134;5.596;2023-09-19T00:17:48;14.40;99.90
19206;DHT22;59358;52.134;5.596;2023-09-19T00:20:18;14.40;99.90
19206;DHT22;59358;52.134;5.596;2023-09-19T00:22:48;14.30;99.90
19206;DHT22;59358;52.134;5.596;2023-09-19T00:25:16;14.30;99.90
19206;DHT22;59358;52.134;5.596;2023-09-19T00:27:42;14.30;99.90
19206;DHT22;59358;52.134;5.596;2023-09-19T00:30:11;14.30;99.90
19206;DHT22;59358;52.134;5.596;2023-09-19T00:32:41;14.30;99.90
19206;DHT22;59358;52.134;5.596;2023-09-19T00:35:10;14.30;99.90
19206;DHT22;59358;52.134;5.596;2023-09-19T00:37:37;14.30;99.90
19206;DHT22;59358;52.134;5.596;2023-09-19T00:40:07;14.30;99.90
19206;DHT22;59358;52.134;5.596;2023-09-19T00:42:38;14.30;99.90
19206;DHT22;59358;52.134;5.596;2023-09-19T00:45:06;14.20;99.90
19206;DHT22;59358;52.134;5.596;2023-09-19T00:47:35;14.20;99.90
19206;DHT22;59358;52.134;5.596;2023-09-19T00:50:03;14.20;99.90
19206;DHT22;59358;52.134;5.596;2023-09-19T00:52:33;14.20;99.90
19206;DHT22;59358;52.134;5.596;2023-09-19T00:55:02;14.30;99.90
19206;DHT22;59358;52.134;5.596;2023-09-19T00:57:31;14.30;99.90
19206;DHT22;59358;52.134;5.596;2023-09-19T00:59:59;14.30;99.90
19206;DHT22;59358;52.134;5.596;2023-09-19T01:02:31;14.30;99.90
19206;DHT22;59358;52.134;5.596;2023-09-19T01:04:58;14.40;99.90
19206;DHT22;59358;52.134;5.596;2023-09-19T01:07:26;14.40;99.90
19206;DHT22;59358;52.134;5.596;2023-09-19T01:09:55;14.40;99.90
19206;DHT22;59358;52.134;5.596;2023-09-19T01:12:30;14.40;99.90
19206;DHT22;59358;52.134;5.596;2023-09-19T01:15:06;14.50;99.90
19206;DHT22;59358;52.134;5.596;2023-09-19T01:17:44;14.50;99.90
19206;DHT22;59358;52.134;5.596;2023-09-19T01:20:21;14.50;99.90
19206;DHT22;59358;52.134;5.596;2023-09-19T01:23:00;14.50;99.90
19206;DHT22;59358;52.134;5.596;2023-09-19T01:25:49;14.50;99.90
19206;DHT22;59358;52.134;5.596;2023-09-19T01:28:28;14.50;99.90
19206;DHT22;59358;52.134;5.596;2023-09-19T01:30:58;14.50;99.90
19206;DHT22;59358;52.134;5.596;2023-09-19T01:33:27;14.50;99.90
19206;DHT22;59358;52.134;5.596;2023-09-19T01:35:59;14.50;99.90
19206;DHT22;59358;52.134;5.596;2023-09-19T01:38:26;14.50;99.90
19206;DHT22;59358;52.134;5.596;2023-09-19T01:41:03;14.50;99.90
19206;DHT22;59358;52.134;5.596;2023-09-19T01:43:34;14.50;99.90
19206;DHT22;59358;52.134;5.596;2023-09-19T01:46:12;14.60;99.90
19206;DHT22;59358;52.134;5.596;2023-09-19T01:48:43;14.60;99.90
19206;DHT22;59358;52.134;5.596;2023-09-19T01:51:18;14.60;99.90
19206;DHT22;59358;52.134;5.596;2023-09-19T01:53:51;14.60;99.90
19206;DHT22;59358;52.134;5.596;2023-09-19T01:56:25;14.60;99.90
19206;DHT22;59358;52.134;5.596;2023-09-19T01:58:56;14.60;99.90
19206;DHT22;59358;52.134;5.596;2023-09-19T02:01:28;14.60;99.90
19206;DHT22;59358;52.134;5.596;2023-09-19T02:03:55;14.50;99.90
19206;DHT22;59358;52.134;5.596;2023-09-19T02:06:22;14.50;99.90
19206;DHT22;59358;52.134;5.596;2023-09-19T02:08:53;14.50;99.90
19206;DHT22;59358;52.134;5.596;2023-09-19T02:11:21;14.50;99.90
19206;DHT22;59358;52.134;5.596;2023-09-19T02:13:48;14.40;99.90
19206;DHT22;59358;52.134;5.596;2023-09-19T02:16:20;14.40;99.90
19206;DHT22;59358;52.134;5.596;2023-09-19T02:18:48;14.30;99.90
19206;DHT22;59358;52.134;5.596;2023-09-19T02:21:16;14.30;99.90
19206;DHT22;59358;52.134;5.596;2023-09-19T02:23:43;14.30;99.90
19206;DHT22;59358;52.134;5.596;2023-09-19T02:26:10;14.30;99.90
19206;DHT22;59358;52.134;5.596;2023-09-19T02:28:39;14.30;99.90
19206;DHT22;59358;52.134;5.596;2023-09-19T02:31:06;14.30;99.90
19206;DHT22;59358;52.134;5.596;2023-09-19T02:33:33;14.20;99.90
19206;DHT22;59358;52.134;5.596;2023-09-19T02:36:02;14.20;99.90
19206;DHT22;59358;52.134;5.596;2023-09-19T02:38:31;14.20;99.90
19206;DHT22;59358;52.134;5.596;2023-09-19T02:40:57;14.10;99.90
19206;DHT22;59358;52.134;5.596;2023-09-19T02:43:24;14.10;99.90
19206;DHT22;59358;52.134;5.596;2023-09-19T02:45:51;14.10;99.90
19206;DHT22;59358;52.134;5.596;2023-09-19T02:48:19;14.10;99.90
19206;DHT22;59358;52.134;5.596;2023-09-19T02:50:46;14.10;99.90
19206;DHT22;59358;52.134;5.596;2023-09-19T02:53:17;14.10;99.90
19206;DHT22;59358;52.134;5.596;2023-09-19T02:55:44;14.00;99.90
19206;DHT22;59358;52.134;5.596;2023-09-19T02:58:11;14.00;99.90
19206;DHT22;59358;52.134;5.596;2023-09-19T03:00:39;14.00;99.90
19206;DHT22;59358;52.134;5.596;2023-09-19T03:03:08;14.00;99.90
19206;DHT22;59358;52.134;5.596;2023-09-19T03:05:35;13.90;99.90
19206;DHT22;59358;52.134;5.596;2023-09-19T03:08:04;13.90;99.90
19206;DHT22;59358;52.134;5.596;2023-09-19T03:10:33;13.80;99.90
19206;DHT22;59358;52.134;5.596;2023-09-19T03:13:03;13.80;99.90
19206;DHT22;59358;52.134;5.596;2023-09-19T03:15:30;13.70;99.90
19206;DHT22;59358;52.134;5.596;2023-09-19T03:17:56;13.70;99.90
19206;DHT22;59358;52.134;5.596;2023-09-19T03:20:25;13.70;99.90
19206;DHT22;59358;52.134;5.596;2023-09-19T03:22:53;13.60;99.90
19206;DHT22;59358;52.134;5.596;2023-09-19T03:25:19;13.60;99.90
19206;DHT22;59358;52.134;5.596;2023-09-19T03:27:50;13.60;99.90
19206;DHT22;59358;52.134;5.596;2023-09-19T03:30:17;13.50;99.90
19206;DHT22;59358;52.134;5.596;2023-09-19T03:32:44;13.50;99.90
19206;DHT22;59358;52.134;5.596;2023-09-19T03:35:13;13.40;99.90
19206;DHT22;59358;52.134;5.596;2023-09-19T03:37:40;13.40;99.90
19206;DHT22;59358;52.134;5.596;2023-09-19T03:40:07;13.40;99.90
19206;DHT22;59358;52.134;5.596;2023-09-19T03:42:38;13.40;99.90
19206;DHT22;59358;52.134;5.596;2023-09-19T03:45:07;13.40;99.90
19206;DHT22;59358;52.134;5.596;2023-09-19T03:47:37;13.30;99.90
19206;DHT22;59358;52.134;5.596;2023-09-19T03:50:05;13.30;99.90
19206;DHT22;59358;52.134;5.596;2023-09-19T03:52:33;13.30;99.90
19206;DHT22;59358;52.134;5.596;2023-09-19T03:55:00;13.20;99.90
19206;DHT22;59358;52.134;5.596;2023-09-19T03:57:28;13.30;99.90
19206;DHT22;59358;52.134;5.596;2023-09-19T03:59:54;13.20;99.90
19206;DHT22;59358;52.134;5.596;2023-09-19T04:02:23;13.20;99.90
19206;DHT22;59358;52.134;5.596;2023-09-19T04:04:50;13.10;99.90
19206;DHT22;59358;52.134;5.596;2023-09-19T04:07:17;13.10;99.90
19206;DHT22;59358;52.134;5.596;2023-09-19T04:09:44;13.10;99.90
19206;DHT22;59358;52.134;5.596;2023-09-19T04:12:12;13.10;99.90
19206;DHT22;59358;52.134;5.596;2023-09-19T04:14:42;13.10;99.90
19206;DHT22;59358;52.134;5.596;2023-09-19T04:17:09;13.10;99.90
19206;DHT22;59358;52.134;5.596;2023-09-19T04:19:37;13.00;99.90
19206;DHT22;59358;52.134;5.596;2023-09-19T04:22:04;13.00;99.90
19206;DHT22;59358;52.134;5.596;2023-09-19T04:24:31;13.00;99.90
19206;DHT22;59358;52.134;5.596;2023-09-19T04:26:59;13.00;99.90
19206;DHT22;59358;52.134;5.596;2023-09-19T04:29:26;12.90;99.90
19206;DHT22;59358;52.134;5.596;2023-09-19T04:31:55;13.00;99.90
19206;DHT22;59358;52.134;5.596;2023-09-19T04:34:22;13.00;99.90
19206;DHT22;59358;52.134;5.596;2023-09-19T04:36:51;13.00;99.90
19206;DHT22;59358;52.134;5.596;2023-09-19T04:39:18;13.00;99.90
19206;DHT22;59358;52.134;5.596;2023-09-19T04:41:45;13.10;99.90
19206;DHT22;59358;52.134;5.596;2023-09-19T04:44:13;13.00;99.90
19206;DHT22;59358;52.134;5.596;2023-09-19T04:46:41;13.00;99.90
19206;DHT22;59358;52.134;5.596;2023-09-19T04:49:08;13.00;99.90
19206;DHT22;59358;52.134;5.596;2023-09-19T04:51:34;13.00;99.90
19206;DHT22;59358;52.134;5.596;2023-09-19T04:54:03;13.10;99.90
19206;DHT22;59358;52.134;5.596;2023-09-19T04:56:30;13.00;99.90
19206;DHT22;59358;52.134;5.596;2023-09-19T04:58:57;13.10;99.90
19206;DHT22;59358;52.134;5.596;2023-09-19T05:01:25;13.10;99.90
19206;DHT22;59358;52.134;5.596;2023-09-19T05:03:52;13.10;99.90
19206;DHT22;59358;52.134;5.596;2023-09-19T05:06:19;13.10;99.90
19206;DHT22;59358;52.134;5.596;2023-09-19T05:08:47;13.10;99.90
19206;DHT22;59358;52.134;5.596;2023-09-19T05:11:17;13.10;99.90
19206;DHT22;59358;52.134;5.596;2023-09-19T05:13:44;13.10;99.90
19206;DHT22;59358;52.134;5.596;2023-09-19T05:16:10;13.10;99.90
19206;DHT22;59358;52.134;5.596;2023-09-19T05:18:37;13.10;99.90
19206;DHT22;59358;52.134;5.596;2023-09-19T05:21:05;13.10;99.90
19206;DHT22;59358;52.134;5.596;2023-09-19T05:23:31;13.20;99.90
19206;DHT22;59358;52.134;5.596;2023-09-19T05:25:58;13.20;99.90
19206;DHT22;59358;52.134;5.596;2023-09-19T05:28:27;13.20;99.90
19206;DHT22;59358;52.134;5.596;2023-09-19T05:30:55;13.20;99.90
19206;DHT22;59358;52.134;5.596;2023-09-19T05:33:22;13.20;99.90
19206;DHT22;59358;52.134;5.596;2023-09-19T05:35:48;13.20;99.90
19206;DHT22;59358;52.134;5.596;2023-09-19T05:38:15;13.30;99.90
19206;DHT22;59358;52.134;5.596;2023-09-19T05:40:45;13.30;99.90
19206;DHT22;59358;52.134;5.596;2023-09-19T05:43:13;13.30;99.90
19206;DHT22;59358;52.134;5.596;2023-09-19T05:45:41;13.30;99.90
19206;DHT22;59358;52.134;5.596;2023-09-19T05:48:09;13.30;99.90
19206;DHT22;59358;52.134;5.596;2023-09-19T05:50:37;13.40;99.90
19206;DHT22;59358;52.134;5.596;2023-09-19T05:53:04;13.40;99.90
19206;DHT22;59358;52.134;5.596;2023-09-19T05:55:30;13.50;99.90
19206;DHT22;59358;52.134;5.596;2023-09-19T05:57:57;13.50;99.90
19206;DHT22;59358;52.134;5.596;2023-09-19T06:00:25;13.50;99.90
19206;DHT22;59358;52.134;5.596;2023-09-19T06:02:55;13.50;99.90
19206;DHT22;59358;52.134;5.596;2023-09-19T06:05:23;13.60;99.90
19206;DHT22;59358;52.134;5.596;2023-09-19T06:07:52;13.60;99.90
19206;DHT22;59358;52.134;5.596;2023-09-19T06:10:19;13.70;99.90
19206;DHT22;59358;52.134;5.596;2023-09-19T06:12:48;13.80;99.90
19206;DHT22;59358;52.134;5.596;2023-09-19T06:15:16;13.80;99.90
19206;DHT22;59358;52.134;5.596;2023-09-19T06:17:47;13.80;99.90
19206;DHT22;59358;52.134;5.596;2023-09-19T06:20:16;13.80;99.90
19206;DHT22;59358;52.134;5.596;2023-09-19T06:22:44;13.90;99.90
19206;DHT22;59358;52.134;5.596;2023-09-19T06:25:13;13.90;99.90
19206;DHT22;59358;52.134;5.596;2023-09-19T06:27:42;13.90;99.90
19206;DHT22;59358;52.134;5.596;2023-09-19T06:30:10;14.00;99.90
19206;DHT22;59358;52.134;5.596;2023-09-19T06:32:38;14.00;99.90
19206;DHT22;59358;52.134;5.596;2023-09-19T06:35:06;14.10;99.90
19206;DHT22;59358;52.134;5.596;2023-09-19T06:37:38;14.10;99.90
19206;DHT22;59358;52.134;5.596;2023-09-19T06:40:07;14.20;99.90
19206;DHT22;59358;52.134;5.596;2023-09-19T06:42:39;14.20;99.90
19206;DHT22;59358;52.134;5.596;2023-09-19T06:45:07;14.30;99.90
19206;DHT22;59358;52.134;5.596;2023-09-19T06:47:34;14.30;99.90
19206;DHT22;59358;52.134;5.596;2023-09-19T06:50:02;14.30;99.90
19206;DHT22;59358;52.134;5.596;2023-09-19T06:52:31;14.30;99.90
19206;DHT22;59358;52.134;5.596;2023-09-19T06:55:00;14.40;99.90
19206;DHT22;59358;52.134;5.596;2023-09-19T06:57:28;14.40;99.90
19206;DHT22;59358;52.134;5.596;2023-09-19T06:59:56;14.50;99.90
19206;DHT22;59358;52.134;5.596;2023-09-19T07:02:23;14.50;99.90
19206;DHT22;59358;52.134;5.596;2023-09-19T07:04:49;14.60;99.90
19206;DHT22;59358;52.134;5.596;2023-09-19T07:07:16;14.60;99.90
19206;DHT22;59358;52.134;5.596;2023-09-19T07:09:43;14.60;99.90
19206;DHT22;59358;52.134;5.596;2023-09-19T07:12:11;14.70;99.90
19206;DHT22;59358;52.134;5.596;2023-09-19T07:14:38;14.70;99.90
19206;DHT22;59358;52.134;5.596;2023-09-19T07:17:05;14.70;99.90
19206;DHT22;59358;52.134;5.596;2023-09-19T07:19:32;14.70;99.90
19206;DHT22;59358;52.134;5.596;2023-09-19T07:21:59;14.80;99.90
19206;DHT22;59358;52.134;5.596;2023-09-19T07:24:28;14.90;99.90
19206;DHT22;59358;52.134;5.596;2023-09-19T07:26:55;14.90;99.90
19206;DHT22;59358;52.134;5.596;2023-09-19T07:29:23;14.90;99.90
19206;DHT22;59358;52.134;5.596;2023-09-19T07:31:51;14.90;99.90
19206;DHT22;59358;52.134;5.596;2023-09-19T07:34:18;15.10;99.90
19206;DHT22;59358;52.134;5.596;2023-09-19T07:36:46;15.10;99.90
19206;DHT22;59358;52.134;5.596;2023-09-19T07:39:13;15.10;99.90
19206;DHT22;59358;52.134;5.596;2023-09-19T07:41:40;15.20;99.90
19206;DHT22;59358;52.134;5.596;2023-09-19T07:44:07;15.10;99.90
19206;DHT22;59358;52.134;5.596;2023-09-19T07:46:35;15.20;99.90
19206;DHT22;59358;52.134;5.596;2023-09-19T07:49:02;15.40;99.90
19206;DHT22;59358;52.134;5.596;2023-09-19T07:51:30;15.40;99.90
19206;DHT22;59358;52.134;5.596;2023-09-19T07:53:58;15.60;99.90
19206;DHT22;59358;52.134;5.596;2023-09-19T07:56:25;15.60;99.90
19206;DHT22;59358;52.134;5.596;2023-09-19T07:58:53;15.70;99.90
19206;DHT22;59358;52.134;5.596;2023-09-19T08:01:20;15.60;99.90
19206;DHT22;59358;52.134;5.596;2023-09-19T08:03:50;15.70;99.90
19206;DHT22;59358;52.134;5.596;2023-09-19T08:06:17;15.70;99.90
19206;DHT22;59358;52.134;5.596;2023-09-19T08:08:44;15.70;99.90
19206;DHT22;59358;52.134;5.596;2023-09-19T08:11:11;15.80;99.90
19206;DHT22;59358;52.134;5.596;2023-09-19T08:13:38;15.80;99.90
19206;DHT22;59358;52.134;5.596;2023-09-19T08:16:08;15.70;99.90
19206;DHT22;59358;52.134;5.596;2023-09-19T08:18:35;15.80;99.90
19206;DHT22;59358;52.134;5.596;2023-09-19T08:21:04;15.90;99.90
19206;DHT22;59358;52.134;5.596;2023-09-19T08:23:33;16.10;99.90
19206;DHT22;59358;52.134;5.596;2023-09-19T08:26:00;16.20;99.90
19206;DHT22;59358;52.134;5.596;2023-09-19T08:28:32;16.20;99.90
19206;DHT22;59358;52.134;5.596;2023-09-19T08:31:02;16.00;99.90
19206;DHT22;59358;52.134;5.596;2023-09-19T08:33:31;16.10;99.90
19206;DHT22;59358;52.134;5.596;2023-09-19T08:35:59;16.20;99.90
19206;DHT22;59358;52.134;5.596;2023-09-19T08:38:27;16.30;99.90
19206;DHT22;59358;52.134;5.596;2023-09-19T08:40:57;16.40;99.90
19206;DHT22;59358;52.134;5.596;2023-09-19T08:43:25;16.40;99.90
19206;DHT22;59358;52.134;5.596;2023-09-19T08:45:57;16.40;99.90
19206;DHT22;59358;52.134;5.596;2023-09-19T08:48:26;16.50;99.90
19206;DHT22;59358;52.134;5.596;2023-09-19T08:50:56;16.50;99.90
19206;DHT22;59358;52.134;5.596;2023-09-19T08:53:34;16.60;99.90
19206;DHT22;59358;52.134;5.596;2023-09-19T08:56:06;16.70;99.90
19206;DHT22;59358;52.134;5.596;2023-09-19T08:58:42;16.70;99.90
19206;DHT22;59358;52.134;5.596;2023-09-19T09:01:13;16.80;99.90
19206;DHT22;59358;52.134;5.596;2023-09-19T09:03:42;16.80;99.90
19206;DHT22;59358;52.134;5.596;2023-09-19T09:06:14;16.90;99.90
19206;DHT22;59358;52.134;5.596;2023-09-19T09:08:43;17.00;99.90
19206;DHT22;59358;52.134;5.596;2023-09-19T09:11:11;17.10;99.90
19206;DHT22;59358;52.134;5.596;2023-09-19T09:13:38;17.30;99.90
19206;DHT22;59358;52.134;5.596;2023-09-19T09:16:07;17.20;99.90
19206;DHT22;59358;52.134;5.596;2023-09-19T09:18:34;17.30;99.90
19206;DHT22;59358;52.134;5.596;2023-09-19T09:21:01;17.30;99.90
19206;DHT22;59358;52.134;5.596;2023-09-19T09:23:30;17.50;99.90
19206;DHT22;59358;52.134;5.596;2023-09-19T09:25:59;17.60;99.90
19206;DHT22;59358;52.134;5.596;2023-09-19T09:28:29;17.90;99.90
19206;DHT22;59358;52.134;5.596;2023-09-19T09:30:57;17.90;99.90
19206;DHT22;59358;52.134;5.596;2023-09-19T09:33:25;17.80;99.90
19206;DHT22;59358;52.134;5.596;2023-09-19T09:35:53;17.90;99.90
19206;DHT22;59358;52.134;5.596;2023-09-19T09:38:23;17.90;99.90
19206;DHT22;59358;52.134;5.596;2023-09-19T09:40:53;17.90;99.90
19206;DHT22;59358;52.134;5.596;2023-09-19T09:43:28;18.00;99.90
19206;DHT22;59358;52.134;5.596;2023-09-19T09:46:14;18.20;99.90
19206;DHT22;59358;52.134;5.596;2023-09-19T09:49:02;18.20;99.90
19206;DHT22;59358;52.134;5.596;2023-09-19T09:51:42;18.40;99.90
19206;DHT22;59358;52.134;5.596;2023-09-19T09:54:11;18.20;99.90
19206;DHT22;59358;52.134;5.596;2023-09-19T09:56:52;18.40;99.90
19206;DHT22;59358;52.134;5.596;2023-09-19T09:59:21;18.40;99.90
19206;DHT22;59358;52.134;5.596;2023-09-19T10:01:49;18.60;99.90
19206;DHT22;59358;52.134;5.596;2023-09-19T10:04:27;18.70;99.90
19206;DHT22;59358;52.134;5.596;2023-09-19T10:06:57;18.70;99.90
19206;DHT22;59358;52.134;5.596;2023-09-19T10:09:31;18.80;99.90
19206;DHT22;59358;52.134;5.596;2023-09-19T10:12:13;19.00;99.90
19206;DHT22;59358;52.134;5.596;2023-09-19T10:14:43;18.90;99.90
19206;DHT22;59358;52.134;5.596;2023-09-19T10:17:14;19.10;99.90
19206;DHT22;59358;52.134;5.596;2023-09-19T10:19:50;19.00;99.90
19206;DHT22;59358;52.134;5.596;2023-09-19T10:22:23;19.10;99.90
19206;DHT22;59358;52.134;5.596;2023-09-19T10:24:53;18.90;99.90
19206;DHT22;59358;52.134;5.596;2023-09-19T10:27:20;18.80;99.90
19206;DHT22;59358;52.134;5.596;2023-09-19T10:29:49;18.70;99.90
19206;DHT22;59358;52.134;5.596;2023-09-19T10:32:19;18.70;99.90
19206;DHT22;59358;52.134;5.596;2023-09-19T10:34:47;18.50;99.90
19206;DHT22;59358;52.134;5.596;2023-09-19T10:37:16;18.30;99.90
19206;DHT22;59358;52.134;5.596;2023-09-19T10:39:46;18.40;99.90
19206;DHT22;59358;52.134;5.596;2023-09-19T10:42:19;18.60;99.90
19206;DHT22;59358;52.134;5.596;2023-09-19T10:44:51;18.70;99.90
19206;DHT22;59358;52.134;5.596;2023-09-19T10:47:19;18.90;99.90
19206;DHT22;59358;52.134;5.596;2023-09-19T10:49:49;19.00;99.90
19206;DHT22;59358;52.134;5.596;2023-09-19T10:52:20;19.20;99.90
19206;DHT22;59358;52.134;5.596;2023-09-19T10:54:50;19.50;99.90
19206;DHT22;59358;52.134;5.596;2023-09-19T10:57:21;19.40;99.90
19206;DHT22;59358;52.134;5.596;2023-09-19T11:00:03;19.40;99.90
19206;DHT22;59358;52.134;5.596;2023-09-19T11:03:17;19.20;99.90
19206;DHT22;59358;52.134;5.596;2023-09-19T11:06:08;19.30;99.90
19206;DHT22;59358;52.134;5.596;2023-09-19T11:08:57;19.40;99.90
19206;DHT22;59358;52.134;5.596;2023-09-19T11:11:40;19.30;99.90
19206;DHT22;59358;52.134;5.596;2023-09-19T11:20:23;19.20;99.90
19206;DHT22;59358;52.134;5.596;2023-09-19T11:23:22;19.30;99.90
19206;DHT22;59358;52.134;5.596;2023-09-19T11:25:50;19.40;99.90
19206;DHT22;59358;52.134;5.596;2023-09-19T11:28:34;19.60;99.90
19206;DHT22;59358;52.134;5.596;2023-09-19T11:34:48;19.90;99.90
19206;DHT22;59358;52.134;5.596;2023-09-19T11:40:29;19.90;99.90
19206;DHT22;59358;52.134;5.596;2023-09-19T11:42:56;19.70;99.90
19206;DHT22;59358;52.134;5.596;2023-09-19T11:48:29;19.60;99.90
19206;DHT22;59358;52.134;5.596;2023-09-19T11:51:01;19.60;99.90
19206;DHT22;59358;52.134;5.596;2023-09-19T11:53:33;19.40;99.90
19206;DHT22;59358;52.134;5.596;2023-09-19T11:56:06;19.40;99.90
19206;DHT22;59358;52.134;5.596;2023-09-19T11:58:37;19.50;99.90
19206;DHT22;59358;52.134;5.596;2023-09-19T12:01:05;19.60;99.90
19206;DHT22;59358;52.134;5.596;2023-09-19T12:03:42;19.70;99.90
19206;DHT22;59358;52.134;5.596;2023-09-19T12:06:12;19.80;99.90
19206;DHT22;59358;52.134;5.596;2023-09-19T12:08:41;19.70;99.90
19206;DHT22;59358;52.134;5.596;2023-09-19T12:11:13;19.60;99.90
19206;DHT22;59358;52.134;5.596;2023-09-19T12:13:45;19.60;99.90
19206;DHT22;59358;52.134;5.596;2023-09-19T12:16:14;19.50;99.90
19206;DHT22;59358;52.134;5.596;2023-09-19T12:18:43;19.40;99.90
19206;DHT22;59358;52.134;5.596;2023-09-19T12:21:28;19.40;99.90
19206;DHT22;59358;52.134;5.596;2023-09-19T12:24:07;19.30;99.90
19206;DHT22;59358;52.134;5.596;2023-09-19T12:26:41;19.40;99.90
19206;DHT22;59358;52.134;5.596;2023-09-19T12:29:13;19.40;99.90
19206;DHT22;59358;52.134;5.596;2023-09-19T12:31:53;19.40;99.90
19206;DHT22;59358;52.134;5.596;2023-09-19T12:34:24;19.60;99.90
19206;DHT22;59358;52.134;5.596;2023-09-19T12:37:08;19.60;99.90
19206;DHT22;59358;52.134;5.596;2023-09-19T12:39:42;19.40;99.90
19206;DHT22;59358;52.134;5.596;2023-09-19T12:42:11;19.40;99.90
19206;DHT22;59358;52.134;5.596;2023-09-19T12:44:41;19.40;99.90
19206;DHT22;59358;52.134;5.596;2023-09-19T12:47:10;19.50;99.90
19206;DHT22;59358;52.134;5.596;2023-09-19T12:52:44;19.60;99.90
19206;DHT22;59358;52.134;5.596;2023-09-19T12:55:23;19.50;99.90
19206;DHT22;59358;52.134;5.596;2023-09-19T12:58:07;19.30;99.90
19206;DHT22;59358;52.134;5.596;2023-09-19T13:00:36;19.20;99.90
19206;DHT22;59358;52.134;5.596;2023-09-19T13:03:17;19.00;99.90
19206;DHT22;59358;52.134;5.596;2023-09-19T13:05:51;19.00;99.90
19206;DHT22;59358;52.134;5.596;2023-09-19T13:08:20;19.00;99.90
19206;DHT22;59358;52.134;5.596;2023-09-19T13:11:07;19.10;99.90
19206;DHT22;59358;52.134;5.596;2023-09-19T13:13:39;19.20;99.90
19206;DHT22;59358;52.134;5.596;2023-09-19T13:16:07;19.30;99.90
19206;DHT22;59358;52.134;5.596;2023-09-19T13:18:48;19.50;99.90
19206;DHT22;59358;52.134;5.596;2023-09-19T13:21:17;19.60;99.90
19206;DHT22;59358;52.134;5.596;2023-09-19T13:23:51;19.60;99.90
19206;DHT22;59358;52.134;5.596;2023-09-19T13:26:18;19.50;99.90
19206;DHT22;59358;52.134;5.596;2023-09-19T13:28:47;19.30;99.90
19206;DHT22;59358;52.134;5.596;2023-09-19T13:31:15;19.20;99.90
19206;DHT22;59358;52.134;5.596;2023-09-19T13:33:45;19.10;99.90
19206;DHT22;59358;52.134;5.596;2023-09-19T13:36:12;19.10;99.90
19206;DHT22;59358;52.134;5.596;2023-09-19T13:38:40;19.10;99.90
19206;DHT22;59358;52.134;5.596;2023-09-19T13:41:08;19.00;99.90
19206;DHT22;59358;52.134;5.596;2023-09-19T13:43:35;19.00;99.90
19206;DHT22;59358;52.134;5.596;2023-09-19T13:46:04;19.30;99.90
19206;DHT22;59358;52.134;5.596;2023-09-19T13:48:30;19.40;99.90
19206;DHT22;59358;52.134;5.596;2023-09-19T13:51:01;19.50;99.90
19206;DHT22;59358;52.134;5.596;2023-09-19T13:53:28;19.40;99.90
19206;DHT22;59358;52.134;5.596;2023-09-19T13:55:55;19.60;99.90
19206;DHT22;59358;52.134;5.596;2023-09-19T13:58:22;19.60;99.90
19206;DHT22;59358;52.134;5.596;2023-09-19T14:00:49;19.70;99.90
19206;DHT22;59358;52.134;5.596;2023-09-19T14:03:18;19.80;99.90
19206;DHT22;59358;52.134;5.596;2023-09-19T14:05:46;19.90;99.90
19206;DHT22;59358;52.134;5.596;2023-09-19T14:08:13;19.90;99.90
19206;DHT22;59358;52.134;5.596;2023-09-19T14:10:40;19.80;99.90
19206;DHT22;59358;52.134;5.596;2023-09-19T14:13:07;19.70;99.90
19206;DHT22;59358;52.134;5.596;2023-09-19T14:15:36;19.60;99.90
19206;DHT22;59358;52.134;5.596;2023-09-19T14:18:04;19.50;99.90
19206;DHT22;59358;52.134;5.596;2023-09-19T14:20:32;19.50;99.90
19206;DHT22;59358;52.134;5.596;2023-09-19T14:22:59;19.50;99.90
19206;DHT22;59358;52.134;5.596;2023-09-19T14:25:25;19.50;99.90
19206;DHT22;59358;52.134;5.596;2023-09-19T14:27:52;19.50;99.90
19206;DHT22;59358;52.134;5.596;2023-09-19T14:30:19;19.40;99.90
19206;DHT22;59358;52.134;5.596;2023-09-19T14:32:46;19.40;99.90
19206;DHT22;59358;52.134;5.596;2023-09-19T14:35:13;19.40;99.90
19206;DHT22;59358;52.134;5.596;2023-09-19T14:37:41;19.40;99.90
19206;DHT22;59358;52.134;5.596;2023-09-19T14:40:09;19.40;99.90
19206;DHT22;59358;52.134;5.596;2023-09-19T14:42:38;19.30;99.90
19206;DHT22;59358;52.134;5.596;2023-09-19T14:45:06;19.40;99.90
19206;DHT22;59358;52.134;5.596;2023-09-19T14:47:33;19.40;99.90
19206;DHT22;59358;52.134;5.596;2023-09-19T14:50:01;19.40;99.90
19206;DHT22;59358;52.134;5.596;2023-09-19T14:52:32;19.40;99.90
19206;DHT22;59358;52.134;5.596;2023-09-19T14:55:00;19.30;99.90
19206;DHT22;59358;52.134;5.596;2023-09-19T14:57:28;19.30;99.90
19206;DHT22;59358;52.134;5.596;2023-09-19T14:59:55;19.30;99.90
19206;DHT22;59358;52.134;5.596;2023-09-19T15:02:23;19.20;99.90
19206;DHT22;59358;52.134;5.596;2023-09-19T15:04:51;19.20;99.90
19206;DHT22;59358;52.134;5.596;2023-09-19T15:07:18;19.20;99.90
19206;DHT22;59358;52.134;5.596;2023-09-19T15:09:45;19.10;99.90
19206;DHT22;59358;52.134;5.596;2023-09-19T15:12:13;19.10;99.90
19206;DHT22;59358;52.134;5.596;2023-09-19T15:14:41;19.00;99.90
19206;DHT22;59358;52.134;5.596;2023-09-19T15:17:08;18.90;99.90
19206;DHT22;59358;52.134;5.596;2023-09-19T15:19:35;18.80;99.90
19206;DHT22;59358;52.134;5.596;2023-09-19T15:22:03;18.80;99.90
19206;DHT22;59358;52.134;5.596;2023-09-19T15:24:31;18.70;99.90
19206;DHT22;59358;52.134;5.596;2023-09-19T15:26:58;18.70;99.90
19206;DHT22;59358;52.134;5.596;2023-09-19T15:29:26;18.60;99.90
19206;DHT22;59358;52.134;5.596;2023-09-19T15:31:55;18.70;99.90
19206;DHT22;59358;52.134;5.596;2023-09-19T15:34:24;18.80;99.90
19206;DHT22;59358;52.134;5.596;2023-09-19T15:36:51;18.80;99.90
19206;DHT22;59358;52.134;5.596;2023-09-19T15:39:18;18.80;99.90
19206;DHT22;59358;52.134;5.596;2023-09-19T15:41:48;18.80;99.90
19206;DHT22;59358;52.134;5.596;2023-09-19T15:44:18;18.60;99.90
19206;DHT22;59358;52.134;5.596;2023-09-19T15:46:46;18.40;99.90
19206;DHT22;59358;52.134;5.596;2023-09-19T15:49:14;18.20;99.90
19206;DHT22;59358;52.134;5.596;2023-09-19T15:51:41;18.30;99.90
19206;DHT22;59358;52.134;5.596;2023-09-19T15:54:10;18.40;99.90
19206;DHT22;59358;52.134;5.596;2023-09-19T15:56:39;18.50;99.90
19206;DHT22;59358;52.134;5.596;2023-09-19T15:59:07;18.50;99.90
19206;DHT22;59358;52.134;5.596;2023-09-19T16:01:34;18.60;99.90
19206;DHT22;59358;52.134;5.596;2023-09-19T16:04:02;18.60;99.90